createdAt,value
2019-02-19T00:01:36.115Z,18.64
2019-02-19T01:18:43.803Z,20.14
2019-02-19T01:39:17.188Z,21.35
2019-02-19T01:44:25.311Z,21.02
2019-02-19T01:49:33.664Z,22.15
2019-02-19T02:10:07.816Z,22.23
2019-02-19T02:15:16.269Z,22.96
2019-02-19T02:40:57.950Z,23.82
2019-02-19T02:46:06.125Z,25.54
2019-02-19T02:51:14.318Z,24.76
2019-02-19T03:01:31.321Z,24.85
2019-02-19T03:11:47.865Z,25.39
2019-02-19T03:16:55.916Z,25.00
2019-02-19T03:22:04.052Z,24.42
2019-02-19T03:27:12.473Z,26.01
2019-02-19T03:32:20.672Z,24.97
2019-02-19T03:37:28.797Z,24.84
2019-02-19T03:42:37.053Z,26.17
2019-02-19T03:47:45.109Z,26.95
2019-02-19T03:58:01.501Z,29.21
2019-02-19T04:23:42.774Z,31.03
2019-02-19T04:33:59.709Z,31.04
2019-02-19T04:59:41.741Z,30.48
2019-02-19T05:40:50.285Z,35.17
2019-02-19T05:56:16.263Z,32.25
2019-02-19T06:37:22.961Z,30.53
2019-02-19T06:42:31.128Z,30.92
2019-02-19T07:13:21.646Z,31.70
2019-02-19T07:18:29.846Z,32.00
2019-02-19T07:28:46.738Z,32.31
2019-02-19T07:39:03.963Z,29.13
2019-02-19T07:44:12.293Z,28.84
2019-02-19T08:04:45.666Z,23.54
2019-02-19T08:09:55.309Z,21.88
2019-02-19T08:15:03.849Z,20.43
2019-02-19T08:35:36.040Z,21.85
2019-02-19T11:30:20.884Z,12.23
2019-02-19T12:11:22.982Z,12.19
2019-02-19T12:16:31.193Z,13.59
2019-02-19T12:42:14.209Z,12.74
2019-02-19T13:03:29.648Z,13.32
2019-02-19T13:08:27.950Z,12.33
2019-02-19T13:13:36.264Z,12.70
2019-02-19T13:18:44.553Z,12.93
2019-02-19T13:23:52.811Z,14.16
2019-02-19T13:29:01.123Z,13.24
2019-02-19T13:34:09.396Z,13.71
2019-02-19T13:39:17.902Z,12.81
2019-02-19T13:44:26.172Z,14.92
2019-02-19T13:49:34.481Z,15.27
2019-02-19T13:54:43.102Z,13.82
2019-02-19T13:59:51.471Z,13.39
2019-02-19T14:04:59.737Z,12.40
2019-02-19T14:10:08.082Z,11.87
2019-02-19T14:15:16.284Z,12.14
2019-02-19T14:20:24.658Z,11.87
2019-02-19T14:25:33.881Z,11.15
2019-02-19T14:30:42.329Z,12.12
2019-02-19T14:35:50.877Z,13.68
2019-02-19T14:40:59.200Z,12.18
2019-02-19T14:46:07.487Z,13.42
2019-02-19T14:51:08.623Z,12.08
2019-02-19T14:56:16.990Z,13.13
2019-02-19T15:01:25.225Z,12.47
2019-02-19T15:06:33.457Z,13.33
2019-02-19T15:11:41.751Z,11.60
2019-02-19T15:16:50.633Z,8.65
2019-02-19T15:21:59.238Z,9.30
2019-02-19T15:27:08.303Z,12.16
2019-02-19T15:32:16.723Z,8.18
2019-02-19T15:37:24.934Z,8.62
2019-02-19T15:42:33.559Z,9.95
2019-02-19T15:47:41.849Z,8.26
2019-02-19T15:52:50.148Z,7.26
2019-02-19T15:58:04.577Z,6.86
2019-02-19T16:03:06.107Z,6.47
2019-02-19T16:08:14.478Z,6.80
2019-02-19T16:13:22.860Z,7.40
2019-02-19T16:18:31.225Z,7.22
2019-02-19T16:23:39.511Z,7.23
2019-02-19T16:28:47.649Z,7.93
2019-02-19T16:34:00.619Z,7.34
2019-02-19T16:38:59.278Z,7.64
2019-02-19T16:44:07.530Z,7.21
2019-02-19T16:49:15.647Z,8.19
2019-02-19T16:54:23.809Z,10.69
2019-02-19T16:59:31.934Z,15.41
2019-02-19T17:04:40.300Z,8.83
2019-02-19T17:09:48.543Z,8.47
2019-02-19T17:14:56.995Z,9.76
2019-02-19T17:20:05.301Z,10.71
2019-02-19T17:25:14.149Z,11.17
2019-02-19T17:30:23.327Z,9.40
2019-02-19T17:35:31.980Z,9.72
2019-02-19T17:40:40.797Z,9.77
2019-02-19T17:45:49.976Z,9.50
2019-02-19T17:50:58.640Z,9.84
2019-02-19T17:56:07.009Z,10.06
2019-02-19T18:01:15.624Z,9.79
2019-02-19T18:06:17.943Z,9.68
2019-02-19T18:11:26.953Z,8.80
2019-02-19T18:16:35.448Z,10.91
2019-02-19T18:21:43.939Z,10.40
2019-02-19T18:26:52.495Z,10.06
2019-02-19T18:32:00.859Z,9.94
2019-02-19T18:37:09.854Z,10.14
2019-02-19T18:42:18.418Z,10.45
2019-02-19T18:47:26.715Z,11.51
2019-02-19T18:52:34.956Z,11.74
2019-02-19T18:57:44.090Z,11.71
2019-02-19T19:02:52.344Z,10.69
2019-02-19T19:08:00.557Z,11.03
2019-02-19T19:13:08.811Z,10.46
2019-02-19T19:18:19.292Z,11.27
2019-02-19T19:23:26.586Z,11.14
2019-02-19T19:28:35.051Z,11.78
2019-02-19T19:33:43.225Z,9.45
2019-02-19T19:38:51.749Z,9.26
2019-02-19T19:43:59.909Z,9.63
2019-02-19T19:49:08.575Z,10.10
2019-02-19T19:54:16.896Z,10.01
2019-02-19T19:59:25.242Z,9.28
2019-02-19T20:04:34.384Z,9.43
2019-02-19T20:09:43.913Z,9.21
2019-02-19T20:14:53.097Z,9.32
2019-02-19T20:20:02.518Z,8.99
2019-02-19T20:25:11.038Z,8.91
2019-02-19T20:30:19.425Z,8.85
2019-02-19T20:35:28.122Z,8.98
2019-02-19T20:40:36.593Z,8.84
2019-02-19T20:45:45.008Z,8.98
2019-02-19T20:50:53.628Z,9.19
2019-02-19T20:56:02.022Z,9.10
2019-02-19T21:01:10.519Z,9.68
2019-02-19T21:06:18.678Z,9.96
2019-02-19T21:11:27.691Z,9.53
2019-02-19T21:16:34.857Z,9.66
2019-02-19T21:21:45.164Z,8.91
2019-02-19T21:26:51.019Z,10.01
2019-02-19T21:31:59.401Z,9.32
2019-02-19T21:37:07.661Z,10.12
2019-02-19T21:42:16.134Z,11.24
2019-02-19T21:47:24.591Z,10.77
2019-02-19T21:52:28.854Z,10.06
2019-02-19T21:57:36.330Z,10.48
2019-02-19T22:02:44.452Z,11.36
2019-02-19T22:07:45.516Z,10.84
2019-02-19T22:12:53.662Z,11.19
2019-02-19T22:17:54.368Z,11.51
2019-02-19T22:23:02.191Z,12.72
2019-02-19T22:28:10.347Z,12.96
2019-02-19T22:33:18.292Z,12.80
2019-02-19T22:38:26.129Z,13.08
2019-02-19T22:43:34.201Z,13.44
2019-02-19T22:48:42.089Z,14.31
2019-02-19T22:53:49.321Z,14.63
2019-02-19T22:58:49.956Z,14.28
2019-02-19T23:03:59.041Z,14.10
2019-02-19T23:09:07.996Z,14.39
2019-02-19T23:14:18.141Z,14.10
2019-02-19T23:19:26.362Z,15.05
2019-02-19T23:24:34.703Z,13.74
2019-02-19T23:29:43.124Z,13.77
2019-02-19T23:34:51.451Z,13.58
2019-02-19T23:39:59.729Z,14.67
2019-02-19T23:45:08.076Z,14.27
2019-02-19T23:50:16.297Z,14.65
2019-02-19T23:55:24.692Z,14.26
